Time;durP1;ratioP1;P1;durP2;ratioP2;P2;SDS_P1;SDS_P2;PMS_P1;PMS_P2;Temp;Humidity;BMP_temperature;BMP_pressure;BME280_temperature;BME280_humidity;BME280_pressure;Samples;Min_cycle;Max_cycle;Signal;HPM_P1;HPM_P2
2022/04/04 00:02:03;;;;;;;4.20;3.17;;;;;;;-0.31;100.00;100783.03;5010224;28;20760;-72
2022/04/04 00:04:29;;;;;;;4.57;3.03;;;;;;;-0.36;100.00;100780.34;5017193;28;20235;-72
2022/04/04 00:06:55;;;;;;;3.20;2.70;;;;;;;-0.39;100.00;100778.59;5000860;28;20685;-72
2022/04/04 00:09:22;;;;;;;4.40;2.83;;;;;;;-0.40;100.00;100776.00;5006288;28;20782;-72
2022/04/04 00:11:48;;;;;;;5.17;2.63;;;;;;;-0.40;100.00;100768.31;5007619;28;20197;-72
2022/04/04 00:14:16;;;;;;;3.57;2.70;;;;;;;-0.44;100.00;100772.50;5006991;28;20204;-72
2022/04/04 00:16:43;;;;;;;3.00;2.53;;;;;;;-0.45;100.00;100775.03;5000592;28;20192;-72
2022/04/04 00:19:09;;;;;;;5.27;3.10;;;;;;;-0.50;100.00;100768.94;5007124;28;20246;-72
2022/04/04 00:21:36;;;;;;;3.87;2.93;;;;;;;-0.54;100.00;100769.72;5002632;28;20203;-72
2022/04/04 00:24:02;;;;;;;5.37;2.97;;;;;;;-0.56;100.00;100764.56;5011413;28;20294;-72
2022/04/04 00:26:28;;;;;;;3.23;2.73;;;;;;;-0.63;100.00;100765.28;5002612;28;20851;-72
2022/04/04 00:28:57;;;;;;;4.63;3.00;;;;;;;-0.65;100.00;100761.78;5001950;28;20696;-72
2022/04/04 00:31:25;;;;;;;4.23;3.03;;;;;;;-0.70;100.00;100755.69;5002315;28;20200;-72
2022/04/04 00:33:52;;;;;;;3.17;2.87;;;;;;;-0.74;100.00;100752.19;5001891;28;20201;-72
2022/04/04 00:36:20;;;;;;;3.67;2.73;;;;;;;-0.78;100.00;100746.16;5002141;28;20201;-72
2022/04/04 00:38:47;;;;;;;3.87;2.70;;;;;;;-0.85;100.00;100754.53;4998475;28;20705;-72
2022/04/04 00:41:15;;;;;;;4.07;2.70;;;;;;;-0.86;100.00;100750.25;5016416;28;20558;-72
2022/04/04 00:43:42;;;;;;;4.50;2.90;;;;;;;-0.93;100.00;100739.81;4997337;28;20246;-72
2022/04/04 00:46:09;;;;;;;3.27;2.83;;;;;;;-0.97;100.00;100739.78;5009725;28;20262;-72
2022/04/04 00:48:37;;;;;;;2.93;2.60;;;;;;;-1.00;100.00;100741.41;5004024;28;20921;-72
2022/04/04 00:51:04;;;;;;;4.20;2.97;;;;;;;-1.03;100.00;100738.78;5012406;28;20739;-72
2022/04/04 00:53:32;;;;;;;4.90;3.10;;;;;;;-1.03;100.00;100734.50;5016462;28;20213;-72
2022/04/04 00:55:59;;;;;;;3.37;2.77;;;;;;;-1.05;100.00;100737.88;5007258;28;20288;-72
2022/04/04 00:58:29;;;;;;;3.47;2.97;;;;;;;-1.05;100.00;100730.19;5004092;28;20248;-72
2022/04/04 01:00:55;;;;;;;3.73;2.80;;;;;;;-1.03;100.00;100737.06;5016135;28;20949;-72
2022/04/04 01:03:22;;;;;;;4.33;2.87;;;;;;;-1.08;100.00;100737.78;5010902;28;20303;-72
2022/04/04 01:05:50;;;;;;;5.37;2.83;;;;;;;-1.09;100.00;100728.38;5015100;28;20232;-73
2022/04/04 01:08:17;;;;;;;4.23;2.83;;;;;;;-1.16;100.00;100730.81;5012500;28;20236;-72
2022/04/04 01:10:44;;;;;;;6.40;2.97;;;;;;;-1.23;100.00;100726.38;5006513;28;20733;-72
2022/04/04 01:13:12;;;;;;;3.50;3.07;;;;;;;-1.23;100.00;100723.81;5013134;28;20455;-72
2022/04/04 01:15:38;;;;;;;4.57;2.73;;;;;;;-1.30;100.00;100724.50;5007284;28;20455;-73
2022/04/04 01:18:05;;;;;;;7.07;3.37;;;;;;;-1.35;100.00;100726.09;5013904;28;20227;-72
2022/04/04 01:20:32;;;;;;;3.63;2.77;;;;;;;-1.37;100.00;100726.06;5007162;28;20465;-72
2022/04/04 01:23:00;;;;;;;4.20;3.03;;;;;;;-1.44;100.00;100716.50;5002972;28;20517;-72
2022/04/04 01:25:29;;;;;;;3.43;2.77;;;;;;;-1.41;100.00;100723.38;5019176;28;20474;-72
2022/04/04 01:27:56;;;;;;;4.93;2.63;;;;;;;-1.46;100.00;100720.72;5017395;28;20526;-72
2022/04/04 01:30:25;;;;;;;3.73;2.93;;;;;;;-1.53;100.00;100719.69;5016361;28;20462;-72
2022/04/04 01:32:52;;;;;;;5.03;3.20;;;;;;;-1.59;100.00;100716.13;5013700;28;20469;-72
2022/04/04 01:35:19;;;;;;;3.73;2.73;;;;;;;-1.63;100.00;100715.19;5009402;28;20476;-72
2022/04/04 01:37:46;;;;;;;4.20;3.13;;;;;;;-1.69;100.00;100714.16;5008435;28;20484;-72
2022/04/04 01:40:13;;;;;;;4.60;2.90;;;;;;;-1.73;100.00;100715.75;5006851;28;20449;-73
2022/04/04 01:42:41;;;;;;;4.30;3.33;;;;;;;-1.75;100.00;100709.75;5010713;28;20560;-73
2022/04/04 01:45:09;;;;;;;8.17;3.10;;;;;;;-1.72;100.00;100712.41;5025232;28;20484;-72
2022/04/04 01:47:36;;;;;;;3.70;2.93;;;;;;;-1.70;100.00;100712.44;5008758;28;20560;-73
2022/04/04 01:50:03;;;;;;;5.03;3.13;;;;;;;-1.70;100.00;100707.31;5010404;28;20974;-72
2022/04/04 01:52:30;;;;;;;5.00;3.60;;;;;;;-1.70;100.00;100700.50;5021193;28;20457;-72
2022/04/04 01:54:56;;;;;;;9.70;3.80;;;;;;;-1.66;100.00;100704.00;5007394;28;20465;-72
2022/04/04 01:57:23;;;;;;;8.23;3.27;;;;;;;-1.69;100.00;100694.56;5020220;28;20488;-72
2022/04/04 01:59:51;;;;;;;4.57;3.30;;;;;;;-1.70;100.00;100697.97;5012682;28;20458;-73
2022/04/04 02:02:17;;;;;;;5.70;3.60;;;;;;;-1.74;100.00;100693.59;5002829;28;20461;-73
2022/04/04 02:04:44;;;;;;;3.40;3.00;;;;;;;-1.73;100.00;100697.88;5019183;28;20457;-73
2022/04/04 02:07:10;;;;;;;4.47;3.30;;;;;;;-1.75;100.00;100697.84;5006946;28;20488;-73
2022/04/04 02:09:37;;;;;;;5.23;3.43;;;;;;;-1.72;100.00;100690.25;5009964;28;20464;-72
2022/04/04 02:12:04;;;;;;;5.73;3.33;;;;;;;-1.74;100.00;100686.78;5014571;28;21051;-72
2022/04/04 02:14:31;;;;;;;4.33;3.10;;;;;;;-1.79;100.00;100690.06;5012155;28;20517;-72
2022/04/04 02:16:59;;;;;;;5.37;3.57;;;;;;;-1.79;100.00;100684.94;5013072;28;20485;-72
2022/04/04 02:19:26;;;;;;;5.47;3.63;;;;;;;-1.80;100.00;100688.31;5013570;28;20480;-72
2022/04/04 02:21:52;;;;;;;7.17;3.37;;;;;;;-1.86;100.00;100686.47;5017561;28;20473;-72
2022/04/04 02:24:18;;;;;;;5.40;3.37;;;;;;;-1.81;100.00;100682.34;5004903;28;20503;-73
2022/04/04 02:26:46;;;;;;;4.87;3.80;;;;;;;-1.83;100.00;100680.56;5015066;28;20949;-72
2022/04/04 02:29:12;;;;;;;6.30;4.00;;;;;;;-1.88;100.00;100677.03;5019751;28;20478;-72
2022/04/04 02:31:39;;;;;;;5.10;3.20;;;;;;;-1.87;100.00;100679.63;5008582;28;20860;-72
2022/04/04 02:34:07;;;;;;;4.40;3.40;;;;;;;-1.84;100.00;100681.41;5005055;28;20503;-72
2022/04/04 02:36:33;;;;;;;4.67;3.50;;;;;;;-1.86;100.00;100672.84;5005706;28;20457;-72
2022/04/04 02:39:01;;;;;;;5.23;3.93;;;;;;;-1.91;100.00;100673.56;5014861;28;20458;-72
2022/04/04 02:41:27;;;;;;;5.60;3.67;;;;;;;-1.91;100.00;100671.00;5007901;28;20453;-72
2022/04/04 02:43:54;;;;;;;5.53;3.90;;;;;;;-1.92;100.00;100671.88;5013892;28;20486;-72
2022/04/04 02:46:20;;;;;;;5.23;3.33;;;;;;;-1.92;100.00;100668.41;5014017;28;20802;-73
2022/04/04 02:48:47;;;;;;;5.03;3.77;;;;;;;-1.92;100.00;100670.97;5007950;28;20485;-72
2022/04/04 02:51:14;;;;;;;4.97;3.87;;;;;;;-1.94;100.00;100667.53;5009386;28;21273;-72
2022/04/04 02:53:41;;;;;;;5.70;4.00;;;;;;;-1.96;100.00;100664.91;5009661;28;20942;-72
2022/04/04 02:58:51;;;;;;;6.13;3.83;;;;;;;-1.96;100.00;100670.03;5009990;28;20478;-72
2022/04/04 03:01:19;;;;;;;5.17;4.10;;;;;;;-1.97;100.00;100660.66;5006487;28;20474;-72
2022/04/04 03:03:46;;;;;;;6.57;4.67;;;;;;;-2.02;100.00;100661.34;5005450;28;20547;-72
2022/04/04 03:06:12;;;;;;;6.43;4.30;;;;;;;-1.99;100.00;100662.28;5003138;28;21136;-72
2022/04/04 03:08:40;;;;;;;4.77;3.93;;;;;;;-2.01;100.00;100661.38;5005524;28;20491;-72
2022/04/04 03:11:07;;;;;;;5.80;4.63;;;;;;;-2.03;100.00;100657.94;5002518;28;20465;-72
2022/04/04 03:13:33;;;;;;;4.90;4.13;;;;;;;-2.01;100.00;100651.16;5007879;28;20462;-72
2022/04/04 03:15:59;;;;;;;5.70;4.40;;;;;;;-2.04;100.00;100656.22;5007986;28;20466;-72
2022/04/04 03:18:26;;;;;;;6.33;3.87;;;;;;;-2.04;100.00;100661.31;4999625;28;20493;-72
2022/04/04 03:20:54;;;;;;;7.93;4.63;;;;;;;-2.05;100.00;100645.94;5014580;28;20454;-72
2022/04/04 03:23:20;;;;;;;7.27;4.77;;;;;;;-1.99;100.00;100651.22;5007397;28;20821;-74
2022/04/04 03:25:48;;;;;;;6.43;4.87;;;;;;;-2.00;100.00;100649.50;5010586;28;20532;-73
2022/04/04 03:28:14;;;;;;;7.13;5.50;;;;;;;-2.00;100.00;100642.69;5003940;28;20475;-73
2022/04/04 03:30:41;;;;;;;5.77;4.97;;;;;;;-1.98;100.00;100640.16;5010410;28;20456;-73
2022/04/04 03:33:07;;;;;;;8.20;5.00;;;;;;;-2.01;100.00;100642.63;5011018;28;20958;-72
2022/04/04 03:35:34;;;;;;;8.33;4.87;;;;;;;-2.07;100.00;100645.91;5009151;28;20449;-73
2022/04/04 03:38:03;;;;;;;8.87;5.00;;;;;;;-2.09;100.00;100645.00;5008682;28;20489;-73
2022/04/04 03:40:30;;;;;;;8.73;5.23;;;;;;;-2.12;100.00;100650.88;5007146;28;20616;-73
2022/04/04 03:42:59;;;;;;;6.30;5.00;;;;;;;-2.11;100.00;100641.53;5006138;28;20472;-73
2022/04/04 03:45:26;;;;;;;5.93;5.27;;;;;;;-2.16;100.00;100635.47;5010006;28;20469;-72
2022/04/04 03:47:53;;;;;;;7.40;5.10;;;;;;;-2.18;100.00;100637.97;5002112;28;20481;-72
2022/04/04 03:50:20;;;;;;;7.97;5.33;;;;;;;-2.19;100.00;100631.13;5009114;28;20461;-72
2022/04/04 03:52:51;;;;;;;7.83;5.20;;;;;;;-2.21;100.00;100627.66;5013178;28;20470;-73
2022/04/04 03:55:20;;;;;;;8.20;6.30;;;;;;;-2.15;100.00;100627.81;5020361;28;20461;-73
2022/04/04 03:57:48;;;;;;;8.60;6.27;;;;;;;-2.12;100.00;100625.34;5020983;23;21109;-67
2022/04/04 04:00:16;;;;;;;8.93;6.70;;;;;;;-2.09;100.00;100624.56;5023063;28;20467;-67
2022/04/04 04:02:43;;;;;;;10.10;6.63;;;;;;;-2.10;100.00;100617.72;5010461;28;20459;-67
2022/04/04 04:05:10;;;;;;;7.77;6.13;;;;;;;-2.03;100.00;100622.16;5012963;28;20467;-67
2022/04/04 04:07:36;;;;;;;7.27;6.30;;;;;;;-2.04;100.00;100607.66;5014646;28;20493;-67
2022/04/04 04:10:03;;;;;;;7.77;6.50;;;;;;;-2.04;100.00;100612.78;5019185;28;20483;-69
2022/04/04 04:12:30;;;;;;;10.43;7.40;;;;;;;-2.05;100.00;100610.19;5014676;28;20471;-66
2022/04/04 04:14:57;;;;;;;8.30;6.60;;;;;;;-2.03;100.00;100604.25;5010687;28;20479;-66
2022/04/04 04:17:25;;;;;;;9.47;7.17;;;;;;;-2.00;100.00;100608.59;5009719;28;20485;-66
2022/04/04 04:22:37;;;;;;;9.37;7.10;;;;;;;-1.99;100.00;100600.94;5016377;28;21259;-66
2022/04/04 04:25:05;;;;;;;13.50;8.10;;;;;;;-1.93;100.00;100598.56;5014705;28;20465;-65
2022/04/04 04:27:31;;;;;;;9.80;7.37;;;;;;;-1.92;100.00;100597.75;5020067;28;20485;-65
2022/04/04 04:29:58;;;;;;;11.07;8.10;;;;;;;-1.85;100.00;100598.72;5015851;28;20488;-65
2022/04/04 04:32:25;;;;;;;10.83;7.80;;;;;;;-1.81;100.00;100595.44;5018459;28;20460;-66
2022/04/04 04:34:52;;;;;;;13.27;8.70;;;;;;;-1.82;100.00;100592.84;5016889;28;20471;-65
2022/04/04 04:37:19;;;;;;;13.90;8.73;;;;;;;-1.75;100.00;100597.28;5018434;28;20494;-65
2022/04/04 04:39:46;;;;;;;11.10;8.70;;;;;;;-1.67;100.00;100597.44;5018835;28;20865;-66
2022/04/04 04:42:12;;;;;;;14.37;9.60;;;;;;;-1.64;100.00;100593.25;5019712;28;20475;-66
2022/04/04 04:44:38;;;;;;;12.20;9.13;;;;;;;-1.61;100.00;100595.03;5015503;28;20470;-65
2022/04/04 04:47:05;;;;;;;11.60;8.67;;;;;;;-1.57;100.00;100595.13;5018060;28;20479;-66
2022/04/04 04:49:33;;;;;;;14.47;9.00;;;;;;;-1.50;100.00;100597.84;5018429;28;21358;-66
2022/04/04 04:52:00;;;;;;;13.20;9.43;;;;;;;-1.46;100.00;100584.28;5020896;28;20826;-65
2022/04/04 04:54:26;;;;;;;14.03;9.43;;;;;;;-1.43;100.00;100592.03;5020447;28;21004;-65
2022/04/04 04:56:53;;;;;;;17.63;9.80;;;;;;;-1.41;100.00;100591.22;5018720;28;20969;-66
2022/04/04 04:59:19;;;;;;;14.30;10.03;;;;;;;-1.35;100.00;100586.25;5017643;28;20485;-66
2022/04/04 05:01:45;;;;;;;13.00;9.77;;;;;;;-1.33;100.00;100579.47;5017163;28;20460;-66
2022/04/04 05:04:12;;;;;;;14.13;10.07;;;;;;;-1.29;100.00;100585.50;5018397;28;20660;-65
2022/04/04 05:06:40;;;;;;;13.87;9.63;;;;;;;-1.25;100.00;100586.44;5017658;28;20877;-65
2022/04/04 05:09:06;;;;;;;15.33;10.07;;;;;;;-1.20;100.00;100580.59;5019104;28;20486;-66
2022/04/04 05:11:33;;;;;;;16.73;10.07;;;;;;;-1.13;100.00;100579.03;5015641;28;20466;-64
2022/04/04 05:13:59;;;;;;;11.03;9.07;;;;;;;-1.08;100.00;100571.44;5017125;28;20985;-66
2022/04/04 05:16:28;;;;;;;14.03;9.33;;;;;;;-1.03;100.00;100580.09;5016147;28;20463;-66
2022/04/04 05:18:55;;;;;;;14.03;9.73;;;;;;;-1.00;100.00;100578.44;5019447;28;20870;-66
2022/04/04 05:21:21;;;;;;;13.87;9.80;;;;;;;-0.91;100.00;100574.38;5015475;28;20462;-65
2022/04/04 05:23:49;;;;;;;15.17;10.20;;;;;;;-0.89;100.00;100578.66;5017594;28;20490;-66
2022/04/04 05:26:16;;;;;;;12.27;9.27;;;;;;;-0.83;100.00;100573.66;5017936;28;20474;-66
2022/04/04 05:28:42;;;;;;;13.80;9.90;;;;;;;-0.81;100.00;100574.56;5017610;28;20231;-66
2022/04/04 05:31:09;;;;;;;14.10;9.90;;;;;;;-0.72;100.00;100578.13;5016060;28;20463;-66
2022/04/04 05:33:36;;;;;;;13.40;9.20;;;;;;;-0.70;100.00;100577.34;5016204;28;20603;-65
2022/04/04 05:36:04;;;;;;;11.13;8.73;;;;;;;-0.66;100.00;100581.66;5015641;28;20219;-66
2022/04/04 05:38:31;;;;;;;13.87;9.40;;;;;;;-0.64;100.00;100580.00;5018202;28;20614;-65
2022/04/04 05:40:58;;;;;;;13.57;9.03;;;;;;;-0.61;100.00;100586.88;5022451;28;20224;-65
2022/04/04 05:43:25;;;;;;;11.03;8.87;;;;;;;-0.60;100.00;100581.78;5018789;28;21579;-66
2022/04/04 05:45:51;;;;;;;14.53;8.70;;;;;;;-0.53;100.00;100587.00;5028546;28;20208;-65
2022/04/04 05:48:18;;;;;;;12.73;8.93;;;;;;;-0.48;100.00;100585.41;5016466;28;20221;-65
2022/04/04 05:50:44;;;;;;;11.83;8.90;;;;;;;-0.44;100.00;100582.94;5028825;28;20553;-65
2022/04/04 05:53:10;;;;;;;12.23;8.90;;;;;;;-0.37;100.00;100586.44;5017444;28;20200;-65
2022/04/04 05:55:37;;;;;;;11.03;8.97;;;;;;;-0.32;100.00;100577.16;5020889;28;20661;-65
2022/04/04 05:58:05;;;;;;;11.00;8.73;;;;;;;-0.27;100.00;100567.00;5015107;28;20236;-65
2022/04/04 06:00:31;;;;;;;10.60;8.23;;;;;;;-0.26;100.00;100577.28;5017278;28;20203;-65
2022/04/04 06:02:57;;;;;;;14.37;8.80;;;;;;;-0.19;100.00;100573.13;5014834;28;20215;-65
2022/04/04 06:05:24;;;;;;;11.40;7.70;;;;;;;-0.12;100.00;100562.13;5021666;28;20668;-66
2022/04/04 06:07:50;;;;;;;12.77;8.63;;;;;;;-0.02;100.00;100568.25;5016681;28;20220;-66
2022/04/04 06:10:16;;;;;;;12.70;8.63;;;;;;;0.09;100.00;100569.31;5016253;28;20780;-66
2022/04/04 06:12:44;;;;;;;11.60;8.60;;;;;;;0.21;100.00;100573.72;5021934;28;20563;-66
2022/04/04 06:15:14;;;;;;;11.70;8.60;;;;;;;0.33;99.31;100573.91;5015752;28;20246;-66
2022/04/04 06:17:41;;;;;;;10.57;8.77;;;;;;;0.43;98.82;100568.94;5019455;28;20476;-66
2022/04/04 06:20:09;;;;;;;11.60;8.10;;;;;;;0.55;97.55;100569.97;5018496;28;20259;-66
2022/04/04 06:22:36;;;;;;;11.83;8.10;;;;;;;0.69;96.63;100569.31;5018934;28;20841;-66
2022/04/04 06:25:03;;;;;;;13.47;8.30;;;;;;;0.83;95.00;100569.50;5019695;28;20266;-65
2022/04/04 06:27:30;;;;;;;11.07;8.50;;;;;;;0.94;94.65;100555.06;5019151;28;20224;-66
2022/04/04 06:29:56;;;;;;;13.70;8.73;;;;;;;1.07;94.03;100550.94;5014433;28;20237;-66
2022/04/04 06:32:25;;;;;;;12.40;8.70;;;;;;;1.16;92.55;100553.59;5015849;28;20208;-66
2022/04/04 06:34:51;;;;;;;15.53;8.07;;;;;;;1.23;90.72;100554.53;5019630;28;20299;-66
2022/04/04 06:37:18;;;;;;;12.03;8.07;;;;;;;1.30;90.90;100543.47;5017766;28;20204;-65
2022/04/04 06:39:44;;;;;;;11.70;8.17;;;;;;;1.38;91.00;100541.00;5020439;28;20556;-66
2022/04/04 06:42:11;;;;;;;9.90;8.30;;;;;;;1.45;90.40;100537.66;5018012;28;20196;-66
2022/04/04 06:44:37;;;;;;;10.27;7.70;;;;;;;1.48;88.74;100537.69;5016173;28;20209;-66
2022/04/04 06:47:04;;;;;;;9.43;7.73;;;;;;;1.53;89.15;100541.16;5021836;28;20220;-66
2022/04/04 06:49:32;;;;;;;11.63;8.60;;;;;;;1.61;88.70;100528.38;5019747;28;20212;-65
2022/04/04 06:51:58;;;;;;;10.03;8.20;;;;;;;1.69;88.29;100529.31;5018074;28;20200;-66
2022/04/04 06:54:27;;;;;;;10.33;7.33;;;;;;;1.79;87.70;100531.09;5018909;28;20196;-65
2022/04/04 06:56:53;;;;;;;10.73;7.83;;;;;;;1.86;87.11;100535.44;5013911;28;20200;-64
2022/04/04 06:59:20;;;;;;;8.93;7.67;;;;;;;1.88;85.47;100523.47;5025127;28;20588;-65
2022/04/04 07:01:47;;;;;;;10.73;7.80;;;;;;;1.97;86.04;100532.97;5017324;28;20230;-66
2022/04/04 07:04:14;;;;;;;9.57;7.10;;;;;;;2.09;86.09;100529.59;5020605;28;20564;-66
2022/04/04 07:06:42;;;;;;;12.03;7.23;;;;;;;2.23;85.27;100534.84;5019573;28;20205;-66
2022/04/04 07:09:08;;;;;;;9.30;6.77;;;;;;;2.37;85.75;100522.06;5019740;28;20311;-66
2022/04/04 07:11:35;;;;;;;9.80;7.67;;;;;;;2.46;85.34;100533.28;5014859;28;20693;-65
2022/04/04 07:14:02;;;;;;;9.03;7.23;;;;;;;2.49;84.57;100527.28;5023387;28;20223;-66
2022/04/04 07:16:29;;;;;;;9.60;6.83;;;;;;;2.51;84.06;100517.00;5015600;28;20611;-65
2022/04/04 07:18:55;;;;;;;12.17;7.90;;;;;;;2.58;85.21;100517.03;5020849;28;20232;-65
2022/04/04 07:21:22;;;;;;;9.67;7.07;;;;;;;2.57;83.23;100523.03;5014814;28;20864;-66
2022/04/04 07:23:50;;;;;;;10.27;7.93;;;;;;;2.66;84.04;100499.06;5018653;28;20208;-66
2022/04/04 07:26:19;;;;;;;14.53;8.53;;;;;;;2.70;83.12;100503.34;5019499;28;20211;-66
2022/04/04 07:28:46;;;;;;;14.70;7.87;;;;;;;2.78;83.20;100501.69;5019617;28;20227;-66
2022/04/04 07:31:13;;;;;;;10.17;7.47;;;;;;;2.84;81.80;100500.84;5013939;28;20646;-66
2022/04/04 07:33:39;;;;;;;9.80;7.97;;;;;;;2.95;81.07;100498.28;5015070;28;20196;-67
2022/04/04 07:36:06;;;;;;;9.50;7.03;;;;;;;3.04;81.67;100495.72;5017449;28;20203;-64
2022/04/04 07:38:33;;;;;;;11.73;7.87;;;;;;;3.20;81.36;100488.91;5014471;28;20219;-66
2022/04/04 07:41:00;;;;;;;9.77;7.40;;;;;;;3.30;79.55;100489.78;5021298;28;20206;-65
2022/04/04 07:43:27;;;;;;;8.53;7.00;;;;;;;3.36;79.78;100480.34;5018089;28;20207;-65
2022/04/04 07:45:54;;;;;;;8.40;6.77;;;;;;;3.51;79.85;100476.06;5019996;28;20277;-66
2022/04/04 07:48:20;;;;;;;8.63;6.90;;;;;;;3.71;79.93;100476.06;5016802;28;20235;-65
2022/04/04 07:50:46;;;;;;;10.30;7.13;;;;;;;3.89;78.61;100467.47;5020414;28;20243;-66
2022/04/04 07:53:13;;;;;;;7.53;6.60;;;;;;;4.01;77.20;100466.56;5019174;28;20685;-66
2022/04/04 07:55:40;;;;;;;9.37;6.20;;;;;;;4.17;77.17;100465.69;5021327;28;20560;-66
2022/04/04 07:58:08;;;;;;;10.47;6.30;;;;;;;4.32;76.02;100457.03;5018313;28;20710;-66
2022/04/04 08:00:35;;;;;;;8.17;6.60;;;;;;;4.46;74.16;100467.31;5017253;28;20682;-65
2022/04/04 08:03:02;;;;;;;7.53;6.43;;;;;;;4.61;74.22;100464.69;5019055;28;20209;-66
2022/04/04 08:05:29;;;;;;;7.50;5.93;;;;;;;4.59;72.13;100461.25;5017101;28;20204;-66
2022/04/04 08:07:56;;;;;;;9.17;6.73;;;;;;;4.82;73.14;100447.34;5016104;28;20231;-66
2022/04/04 08:10:22;;;;;;;7.90;5.83;;;;;;;4.90;70.93;100441.28;5014609;28;20759;-66
2022/04/04 08:12:51;;;;;;;7.80;5.87;;;;;;;4.92;69.95;100443.84;5018156;28;20212;-65
2022/04/04 08:15:19;;;;;;;8.37;6.23;;;;;;;5.08;70.65;100435.16;5014612;28;20226;-66
2022/04/04 08:17:45;;;;;;;7.43;5.90;;;;;;;5.03;69.44;100433.44;5016928;28;20211;-66
2022/04/04 08:20:13;;;;;;;8.90;6.37;;;;;;;5.15;69.81;100433.38;5019371;28;20208;-66
2022/04/04 08:22:41;;;;;;;6.17;5.57;;;;;;;5.12;69.01;100433.41;5018195;28;20507;-66
2022/04/04 08:25:08;;;;;;;7.73;5.87;;;;;;;5.10;69.13;100424.78;5012732;28;20282;-65
2022/04/04 08:27:35;;;;;;;8.97;6.03;;;;;;;5.18;68.15;100415.25;5016804;28;20231;-66
2022/04/04 08:30:04;;;;;;;6.67;5.77;;;;;;;5.34;68.67;100413.41;5016130;28;20224;-65
2022/04/04 08:32:32;;;;;;;9.17;5.90;;;;;;;5.35;67.73;100415.16;5018623;28;20285;-65
2022/04/04 08:34:58;;;;;;;7.70;5.37;;;;;;;5.37;63.09;100420.31;5017451;28;20612;-66
2022/04/04 08:37:25;;;;;;;6.17;5.37;;;;;;;5.43;63.24;100409.91;5016209;28;20204;-65
2022/04/04 08:39:51;;;;;;;6.93;5.43;;;;;;;5.47;62.65;100417.63;5020508;28;20410;-66
2022/04/04 08:42:21;;;;;;;8.53;5.73;;;;;;;5.48;62.44;100419.31;5017881;28;20461;-66
2022/04/04 08:44:49;;;;;;;6.80;5.37;;;;;;;5.54;61.42;100408.09;5017894;28;20216;-66
2022/04/04 08:47:18;;;;;;;6.47;4.90;;;;;;;5.56;61.00;100397.72;5018329;28;20255;-66
2022/04/04 08:49:46;;;;;;;7.10;4.83;;;;;;;5.72;60.79;100399.28;5021007;28;20236;-65
2022/04/04 08:52:12;;;;;;;10.80;5.53;;;;;;;5.73;60.82;100390.66;5017113;28;20223;-65
2022/04/04 08:54:39;;;;;;;5.70;4.53;;;;;;;5.77;60.25;100383.72;5018723;28;20805;-66
2022/04/04 08:57:05;;;;;;;6.97;4.70;;;;;;;5.85;60.59;100387.94;5017405;28;20203;-66
2022/04/04 08:59:31;;;;;;;5.70;4.53;;;;;;;5.99;60.66;100371.44;5019224;28;20219;-66
2022/04/04 09:01:58;;;;;;;8.10;4.80;;;;;;;6.23;60.22;100372.91;5015783;28;20208;-66
2022/04/04 09:04:24;;;;;;;6.70;5.53;;;;;;;6.11;58.38;100373.03;5021038;28;20200;-65
2022/04/04 09:06:53;;;;;;;12.83;5.27;;;;;;;6.26;58.51;100359.88;5015218;28;20200;-66
2022/04/04 09:09:26;;;;;;;8.53;5.37;;;;;;;6.51;58.06;100363.03;5023342;28;20234;-66
2022/04/04 09:11:54;;;;;;;5.30;4.47;;;;;;;6.48;57.00;100352.72;5020367;28;20207;-66
2022/04/04 09:14:24;;;;;;;9.67;5.23;;;;;;;6.57;57.07;100352.56;5017520;28;20195;-66
2022/04/04 09:16:55;;;;;;;9.20;5.87;;;;;;;6.66;57.00;100340.38;5021446;28;20212;-66
2022/04/04 09:19:29;;;;;;;7.97;5.33;;;;;;;6.50;55.74;100347.50;5023481;28;20269;-65
2022/04/04 09:21:57;;;;;;;6.57;5.43;;;;;;;6.54;55.66;100324.13;5025226;28;20611;-66
2022/04/04 09:24:43;;;;;;;7.33;5.67;;;;;;;6.98;57.75;100317.44;5020589;28;20687;-66
2022/04/04 09:27:11;;;;;;;6.27;5.67;;;;;;;6.97;54.80;100320.88;5023382;28;20673;-66
2022/04/04 09:29:41;;;;;;;6.47;5.77;;;;;;;6.83;54.40;100313.31;5023753;28;20270;-66
2022/04/04 09:32:11;;;;;;;7.90;6.40;;;;;;;6.91;54.67;100307.16;5024264;28;20239;-66
2022/04/04 09:34:52;;;;;;;7.43;5.67;;;;;;;6.90;54.75;100311.50;5021016;28;20204;-66
2022/04/04 09:37:21;;;;;;;6.87;5.97;;;;;;;6.73;54.04;100300.53;5021096;28;20760;-66
2022/04/04 09:39:47;;;;;;;8.97;7.13;;;;;;;7.02;55.16;100284.53;5023297;28;20652;-66
2022/04/04 09:42:15;;;;;;;7.97;6.47;;;;;;;7.13;53.71;100280.00;5026760;28;20219;-67
2022/04/04 09:44:42;;;;;;;18.27;7.17;;;;;;;7.15;53.30;100275.66;5021163;28;20205;-66
2022/04/04 09:47:08;;;;;;;8.20;6.47;;;;;;;7.33;53.68;100279.63;5019779;28;20226;-65
2022/04/04 09:49:39;;;;;;;8.60;6.50;;;;;;;7.25;52.23;100278.09;5018647;28;20227;-66
2022/04/04 09:52:05;;;;;;;11.17;6.60;;;;;;;7.13;52.12;100264.44;5017722;28;20230;-66
2022/04/04 09:54:33;;;;;;;7.57;6.53;;;;;;;7.21;52.63;100256.53;5017989;28;20211;-66
2022/04/04 09:57:11;;;;;;;7.60;6.80;;;;;;;7.46;52.85;100250.88;5018820;28;20198;-66
2022/04/04 09:59:38;;;;;;;8.90;7.33;;;;;;;7.47;52.31;100247.41;5020183;28;20228;-66
2022/04/04 10:02:05;;;;;;;9.67;7.87;;;;;;;7.69;52.29;100232.28;5012184;28;20204;-65
2022/04/04 10:04:32;;;;;;;8.17;7.37;;;;;;;7.78;51.16;100219.97;5014619;28;20631;-66
2022/04/04 10:07:04;;;;;;;10.87;7.00;;;;;;;7.84;50.85;100228.50;5019712;28;20201;-66
2022/04/04 10:09:33;;;;;;;8.47;7.23;;;;;;;7.82;50.38;100222.50;5017803;28;20639;-66
2022/04/04 10:12:00;;;;;;;8.87;7.33;;;;;;;7.84;50.36;100213.78;5023382;28;20198;-67
2022/04/04 10:14:27;;;;;;;8.17;7.37;;;;;;;7.85;50.58;100209.47;5017493;28;20225;-67
2022/04/04 10:16:54;;;;;;;8.10;7.30;;;;;;;7.71;50.18;100196.78;5015446;28;20690;-66
2022/04/04 10:19:24;;;;;;;7.63;6.83;;;;;;;7.57;50.02;100197.06;5016420;28;20281;-66
2022/04/04 10:21:50;;;;;;;7.63;6.80;;;;;;;7.49;50.89;100193.75;5024650;28;20208;-66
2022/04/04 10:24:17;;;;;;;8.73;6.43;;;;;;;7.64;49.60;100183.06;5025493;28;20561;-66
2022/04/04 10:26:47;;;;;;;11.27;5.80;;;;;;;7.74;48.86;100175.97;5021839;28;20221;-66
2022/04/04 10:29:15;;;;;;;7.73;6.50;;;;;;;7.85;49.00;100186.09;5024463;28;20900;-66
2022/04/04 10:31:47;;;;;;;7.03;6.33;;;;;;;7.89;48.15;100174.75;5019017;28;20578;-66
2022/04/04 10:34:15;;;;;;;8.10;6.57;;;;;;;7.97;48.41;100175.44;5014310;28;20465;-66
2022/04/04 10:37:07;;;;;;;10.83;5.80;;;;;;;7.83;48.87;100147.19;5011778;28;20197;-66
2022/04/04 10:39:42;;;;;;;8.30;5.83;;;;;;;7.96;49.10;100152.97;5014254;28;20218;-66
2022/04/04 10:42:32;;;;;;;6.53;5.87;;;;;;;8.25;48.48;100144.50;5017357;28;20312;-65
2022/04/04 10:45:04;;;;;;;7.97;6.20;;;;;;;8.05;46.95;100137.16;5020761;28;20198;-67
2022/04/04 10:47:31;;;;;;;8.90;6.20;;;;;;;8.14;47.52;100143.88;5017155;28;20493;-66
2022/04/04 10:49:59;;;;;;;8.80;5.33;;;;;;;8.07;46.94;100127.63;5018222;28;20344;-66
2022/04/04 10:52:39;;;;;;;5.83;5.23;;;;;;;8.00;47.78;100112.19;5017219;28;20763;-66
2022/04/04 10:55:41;;;;;;;11.77;6.40;;;;;;;7.97;48.34;100100.16;5025570;28;20235;-65
2022/04/04 10:58:13;;;;;;;6.10;5.50;;;;;;;7.95;47.39;100105.38;5017788;28;20222;-67
2022/04/04 11:00:58;;;;;;;8.67;5.50;;;;;;;8.21;48.00;100105.63;5013741;28;20760;-66
2022/04/04 11:03:32;;;;;;;8.60;5.50;;;;;;;8.37;46.79;100086.16;5015880;28;20677;-67
2022/04/04 11:09:01;;;;;;;7.23;5.63;;;;;;;8.17;47.47;100065.91;5016878;28;20661;-66
2022/04/04 11:11:48;;;;;;;6.47;5.70;;;;;;;8.09;47.09;100054.84;5018002;28;20209;-65
2022/04/04 11:14:17;;;;;;;6.90;5.47;;;;;;;8.39;47.57;100048.03;5014803;28;20213;-66
2022/04/04 11:17:19;;;;;;;6.33;4.50;;;;;;;8.67;46.15;100063.78;5015102;28;20221;-66
2022/04/04 11:19:46;;;;;;;7.47;4.37;;;;;;;8.49;44.84;100056.47;5016160;28;20409;-66
2022/04/04 11:22:15;;;;;;;5.10;4.57;;;;;;;8.41;45.72;100037.59;5016443;28;20252;-65
2022/04/04 11:24:41;;;;;;;6.53;4.80;;;;;;;8.19;44.22;100042.50;5013170;28;20370;-65
2022/04/04 11:27:08;;;;;;;7.50;4.97;;;;;;;8.03;45.29;100042.03;5017645;28;20206;-65
2022/04/04 11:29:39;;;;;;;8.20;4.70;;;;;;;8.15;45.79;100026.16;5013829;28;20237;-66
2022/04/04 11:32:07;;;;;;;7.90;5.17;;;;;;;8.08;45.45;100020.25;5016564;28;20485;-66
2022/04/04 11:34:36;;;;;;;6.93;5.03;;;;;;;8.01;46.74;100016.09;5005065;28;20357;-66